Time;durP1;ratioP1;P1;durP2;ratioP2;P2;SDS_P1;SDS_P2;PMS_P1;PMS_P2;Temp;Humidity;BMP_temperature;BMP_pressure;BME280_temperature;BME280_humidity;BME280_pressure;Samples;Min_cycle;Max_cycle;Signal;HPM_P1;HPM_P2
2021/12/24 00:01:45;;;;;;;30.17;17.23;;;3.50;99.90;;;;;;4995199;28;20512;-54
2021/12/24 00:04:12;;;;;;;27.80;16.58;;;3.50;99.90;;;;;;4994969;28;20519;-53
2021/12/24 00:06:38;;;;;;;21.13;12.63;;;3.50;99.90;;;;;;4995641;28;20175;-52
2021/12/24 00:09:05;;;;;;;22.53;12.97;;;3.50;99.90;;;;;;4995208;28;20175;-54
2021/12/24 00:11:32;;;;;;;17.90;11.83;;;3.60;99.90;;;;;;4993472;28;20207;-52
2021/12/24 00:13:59;;;;;;;20.47;12.20;;;3.60;99.90;;;;;;4994342;28;20195;-54
2021/12/24 00:16:35;;;;;;;20.03;12.40;;;3.60;99.90;;;;;;4996569;28;20298;-53
2021/12/24 00:19:16;;;;;;;21.20;12.47;;;3.60;99.90;;;;;;4997812;28;20527;-55
2021/12/24 00:35:32;;;;;;;17.90;11.90;;;3.70;99.90;;;;;;4996589;28;20267;-53
2021/12/24 00:38:03;;;;;;;18.27;11.13;;;3.80;99.90;;;;;;4995186;28;20167;-54
2021/12/24 00:40:37;;;;;;;19.13;12.23;;;3.80;99.90;;;;;;4995224;28;20179;-55
2021/12/24 00:43:03;;;;;;;20.30;11.53;;;3.80;99.90;;;;;;4993528;28;20267;-52
2021/12/24 00:45:32;;;;;;;19.53;11.93;;;3.80;99.90;;;;;;4993681;28;20461;-50
2021/12/24 00:47:59;;;;;;;18.30;11.23;;;3.90;99.90;;;;;;4993766;28;20241;-53
2021/12/24 00:50:28;;;;;;;17.60;11.00;;;3.90;99.90;;;;;;4993301;28;20207;-54
2021/12/24 00:53:02;;;;;;;23.63;12.10;;;3.90;99.90;;;;;;4996469;28;20513;-50
2021/12/24 00:55:30;;;;;;;20.57;12.80;;;3.90;99.90;;;;;;4995447;28;20261;-50
2021/12/24 00:57:58;;;;;;;19.37;11.40;;;3.90;99.90;;;;;;4997129;28;20257;-54
2021/12/24 01:00:30;;;;;;;19.43;12.10;;;4.00;99.90;;;;;;4997485;28;20170;-54
2021/12/24 01:02:58;;;;;;;19.27;12.37;;;4.00;99.90;;;;;;4997710;28;20459;-50
2021/12/24 01:05:26;;;;;;;18.80;11.80;;;4.00;99.90;;;;;;4997980;28;20166;-53
2021/12/24 01:07:52;;;;;;;18.53;11.90;;;4.00;99.90;;;;;;4996306;28;20551;-55
2021/12/24 01:10:40;;;;;;;19.73;12.07;;;4.00;99.90;;;;;;4996989;28;20302;-51
2021/12/24 01:13:06;;;;;;;19.00;11.87;;;4.00;99.90;;;;;;4999164;28;20167;-53
2021/12/24 01:15:35;;;;;;;18.03;11.03;;;4.10;99.90;;;;;;5016219;28;20189;-56
2021/12/24 01:20:52;;;;;;;22.00;12.77;;;4.10;99.90;;;;;;5016302;28;20629;-49
2021/12/24 01:26:08;;;;;;;21.63;12.57;;;4.20;99.90;;;;;;5014136;28;20221;-48
2021/12/24 01:28:46;;;;;;;20.30;12.60;;;4.20;99.90;;;;;;5015422;28;20171;-52
2021/12/24 01:39:41;;;;;;;24.17;12.67;;;4.30;99.90;;;;;;5015965;28;20481;-54
2021/12/24 01:44:52;;;;;;;22.87;13.27;;;4.30;99.90;;;;;;5017655;28;20258;-52
2021/12/24 01:47:18;;;;;;;18.47;12.53;;;4.30;99.90;;;;;;5000306;28;20265;-52
2021/12/24 01:49:44;;;;;;;22.60;13.53;;;4.30;99.90;;;;;;5000117;28;20189;-52
2021/12/24 01:52:10;;;;;;;24.07;13.23;;;4.30;99.90;;;;;;5000215;28;20237;-48
2021/12/24 01:54:35;;;;;;;21.67;12.87;;;4.30;99.90;;;;;;4999258;28;20662;-51
2021/12/24 01:57:02;;;;;;;19.13;12.67;;;4.30;99.90;;;;;;5016793;28;20411;-49
2021/12/24 01:59:28;;;;;;;17.83;11.83;;;4.30;99.90;;;;;;4999778;28;20201;-54
2021/12/24 02:01:54;;;;;;;17.63;11.90;;;4.30;99.90;;;;;;5000555;28;20175;-48
2021/12/24 02:04:20;;;;;;;21.97;12.47;;;4.30;99.90;;;;;;4998718;28;20182;-51
2021/12/24 02:06:48;;;;;;;15.57;11.63;;;4.40;99.90;;;;;;5000248;28;20171;-53
2021/12/24 02:09:14;;;;;;;29.48;18.00;;;4.40;99.90;;;;;;4998226;28;20396;-53
2021/12/24 02:11:41;;;;;;;18.87;13.03;;;4.40;99.90;;;;;;4999009;28;20266;-53
2021/12/24 02:14:09;;;;;;;21.47;12.63;;;4.40;99.90;;;;;;4998998;28;20182;-55
2021/12/24 02:30:21;;;;;;;17.47;11.00;;;4.50;99.90;;;;;;5014932;28;20190;-50
2021/12/24 02:32:47;;;;;;;17.93;11.13;;;4.50;99.90;;;;;;4997564;28;20183;-52
2021/12/24 02:35:12;;;;;;;13.90;10.27;;;4.50;99.90;;;;;;4998995;28;20170;-48
2021/12/24 02:37:38;;;;;;;15.67;10.77;;;4.50;99.90;;;;;;4997897;28;20171;-49
2021/12/24 02:40:06;;;;;;;15.30;10.40;;;4.50;99.90;;;;;;4998130;28;20269;-51
2021/12/24 02:42:34;;;;;;;15.77;10.50;;;4.50;99.90;;;;;;4999224;28;20171;-51
2021/12/24 02:44:59;;;;;;;15.93;10.43;;;4.50;99.90;;;;;;5015147;28;20159;-51
2021/12/24 02:47:40;;;;;;;16.47;10.83;;;4.50;99.90;;;;;;4998242;28;20167;-53
2021/12/24 02:55:16;;;;;;;16.53;11.07;;;4.60;99.90;;;;;;5013643;28;20680;-51
2021/12/24 02:57:43;;;;;;;12.50;9.23;;;4.60;99.90;;;;;;4997048;28;20171;-51
2021/12/24 03:00:19;;;;;;;16.17;9.83;;;4.60;99.90;;;;;;4999006;28;20574;-52
2021/12/24 03:02:46;;;;;;;14.07;10.60;;;4.60;99.90;;;;;;4996506;28;20171;-53
2021/12/24 03:05:14;;;;;;;11.43;8.93;;;4.60;99.90;;;;;;4997454;28;20599;-51
2021/12/24 03:07:41;;;;;;;11.33;8.57;;;4.60;99.90;;;;;;4997155;28;20171;-53
2021/12/24 03:10:12;;;;;;;14.10;9.90;;;4.60;99.90;;;;;;4998572;28;20170;-52
2021/12/24 03:12:38;;;;;;;17.63;10.67;;;4.60;99.90;;;;;;4999325;28;20174;-52
2021/12/24 03:15:06;;;;;;;14.50;9.67;;;4.70;99.90;;;;;;4997990;28;20551;-52
2021/12/24 03:17:32;;;;;;;20.67;14.90;;;4.70;99.90;;;;;;4995571;28;20863;-51
2021/12/24 03:20:04;;;;;;;21.65;15.05;;;4.70;99.90;;;;;;4996009;28;20397;-51
2021/12/24 03:22:48;;;;;;;;;;;4.80;99.90;;;;;;5014871;28;20018;-51
2021/12/24 03:25:14;;;;;;;13.50;9.60;;;4.80;99.90;;;;;;5014426;28;20271;-52
2021/12/24 03:27:40;;;;;;;14.63;10.20;;;4.80;99.90;;;;;;4997255;28;20556;-50
2021/12/24 03:30:07;;;;;;;14.20;9.10;;;4.80;99.90;;;;;;4997530;28;20171;-48
2021/12/24 03:32:32;;;;;;;16.47;10.30;;;4.80;99.90;;;;;;4997596;28;20380;-51
2021/12/24 03:34:58;;;;;;;14.70;10.23;;;4.80;99.90;;;;;;4999063;28;20170;-53
2021/12/24 03:37:24;;;;;;;16.30;9.90;;;4.80;99.90;;;;;;5015200;28;20197;-53
2021/12/24 03:39:49;;;;;;;13.60;9.90;;;4.80;99.90;;;;;;4997825;28;20178;-53
2021/12/24 03:42:15;;;;;;;12.43;9.30;;;4.80;99.90;;;;;;4996846;28;20387;-49
2021/12/24 03:44:51;;;;;;;14.27;10.40;;;4.80;99.90;;;;;;4996327;28;20273;-50
2021/12/24 03:47:19;;;;;;;15.37;10.37;;;4.80;99.90;;;;;;4996099;28;20539;-54
2021/12/24 03:52:20;;;;;;;14.80;9.73;;;4.80;99.90;;;;;;5012993;28;20261;-52
2021/12/24 03:54:56;;;;;;;14.30;9.90;;;4.80;99.90;;;;;;4995383;28;20236;-54
2021/12/24 03:57:41;;;;;;;14.60;9.40;;;4.80;99.90;;;;;;4995212;28;20520;-51
2021/12/24 04:00:16;;;;;;;13.90;9.50;;;4.80;99.90;;;;;;4996937;28;20186;-53
2021/12/24 04:02:43;;;;;;;12.90;9.70;;;4.80;99.90;;;;;;5014609;28;20277;-49
2021/12/24 04:05:09;;;;;;;14.97;10.27;;;4.80;99.90;;;;;;4998216;28;20441;-51
2021/12/24 04:07:35;;;;;;;15.90;9.97;;;4.80;99.90;;;;;;4999316;28;20551;-50
2021/12/24 04:10:27;;;;;;;14.37;10.30;;;4.80;99.90;;;;;;4997465;28;20518;-50
2021/12/24 04:12:53;;;;;;;16.23;10.23;;;4.80;99.90;;;;;;4996444;28;20174;-55
2021/12/24 04:15:18;;;;;;;16.10;11.03;;;4.80;99.90;;;;;;4997173;28;20167;-53
2021/12/24 04:17:44;;;;;;;15.30;11.13;;;4.80;99.90;;;;;;4995135;28;20185;-51
2021/12/24 04:25:28;;;;;;;19.70;11.07;;;4.80;99.90;;;;;;5014976;28;20166;-52
2021/12/24 04:27:57;;;;;;;16.37;10.87;;;4.80;99.90;;;;;;4997113;28;20179;-53
2021/12/24 04:30:28;;;;;;;15.97;11.80;;;4.80;99.90;;;;;;4996715;28;20276;-51
2021/12/24 04:33:02;;;;;;;19.40;12.23;;;4.80;99.90;;;;;;4995450;28;20477;-52
2021/12/24 04:51:48;;;;;;;20.67;10.90;;;4.90;99.90;;;;;;5013013;28;20510;-53
2021/12/24 05:05:01;;;;;;;16.30;10.57;;;5.00;99.90;;;;;;5014163;28;20175;-52
2021/12/24 05:10:11;;;;;;;21.63;10.60;;;5.00;99.90;;;;;;5014649;28;20521;-53
2021/12/24 05:12:37;;;;;;;18.63;10.17;;;5.00;99.90;;;;;;5014694;28;20175;-52
2021/12/24 05:15:07;;;;;;;16.57;10.47;;;5.00;99.90;;;;;;4996752;28;20167;-51
2021/12/24 05:18:27;;;;;;;17.07;10.07;;;5.00;99.90;;;;;;4996062;28;20167;-55
2021/12/24 05:23:05;;;;;;;20.03;11.23;;;5.10;99.90;;;;;;5016597;28;20174;-52
2021/12/24 05:25:30;;;;;;;19.70;11.33;;;5.10;99.90;;;;;;5000167;28;20166;-56
2021/12/24 05:27:56;;;;;;;17.30;11.63;;;5.10;99.90;;;;;;4998576;28;20396;-56
2021/12/24 05:30:23;;;;;;;17.03;11.53;;;5.10;99.90;;;;;;4997403;28;20262;-51
2021/12/24 05:32:49;;;;;;;18.57;11.93;;;5.10;99.90;;;;;;4996795;28;20570;-52
2021/12/24 05:35:14;;;;;;;24.17;12.43;;;5.10;99.90;;;;;;4997239;28;20162;-50
2021/12/24 05:37:40;;;;;;;17.97;11.87;;;5.00;99.90;;;;;;4996160;28;20178;-50
2021/12/24 05:40:06;;;;;;;17.80;12.23;;;5.00;99.90;;;;;;4997361;28;20437;-53
2021/12/24 05:42:33;;;;;;;15.10;11.00;;;5.00;99.90;;;;;;5015918;28;20539;-49
2021/12/24 05:45:05;;;;;;;18.73;12.10;;;5.00;99.90;;;;;;4999390;28;20232;-51
2021/12/24 05:47:31;;;;;;;16.90;10.93;;;5.00;99.90;;;;;;4999013;28;20163;-51
2021/12/24 05:49:58;;;;;;;19.73;11.67;;;5.00;99.90;;;;;;4997035;28;20163;-52
2021/12/24 05:52:24;;;;;;;16.73;11.23;;;4.90;99.90;;;;;;5010892;28;20230;-54
2021/12/24 05:54:51;;;;;;;16.30;10.33;;;5.00;99.90;;;;;;4994279;28;20486;-51
2021/12/24 05:57:17;;;;;;;15.20;9.97;;;4.90;99.90;;;;;;5009939;28;20177;-52
2021/12/24 05:59:43;;;;;;;14.33;9.27;;;5.00;99.90;;;;;;4991958;28;20169;-49
2021/12/24 06:02:09;;;;;;;14.93;9.90;;;4.90;99.90;;;;;;4991332;28;20167;-53
2021/12/24 06:04:34;;;;;;;16.17;9.80;;;4.90;99.90;;;;;;4992430;28;20340;-53
2021/12/24 06:07:00;;;;;;;15.83;9.47;;;4.90;99.90;;;;;;4993557;28;20174;-52
2021/12/24 06:09:26;;;;;;;17.30;8.73;;;4.90;99.90;;;;;;4992692;28;20170;-52
2021/12/24 06:11:52;;;;;;;16.10;8.90;;;4.80;99.90;;;;;;4993744;28;20209;-50
2021/12/24 06:14:18;;;;;;;11.97;8.13;;;4.90;99.90;;;;;;4994916;28;20182;-50
2021/12/24 06:17:17;;;;;;;13.10;8.00;;;4.80;99.90;;;;;;4995595;28;20170;-52
2021/12/24 06:19:35;;;;;;;9.17;5.83;;;4.80;99.90;;;;;;5007755;28;20191;-49
2021/12/24 06:22:01;;;;;;;10.13;5.70;;;4.80;99.90;;;;;;5013135;28;20188;-50
2021/12/24 06:24:26;;;;;;;7.70;5.50;;;4.70;99.90;;;;;;4998431;28;20696;-53
2021/12/24 06:26:52;;;;;;;8.10;5.53;;;4.70;99.90;;;;;;5015574;28;20378;-55
2021/12/24 06:29:20;;;;;;;7.10;4.87;;;4.70;99.90;;;;;;4998430;28;20484;-54
2021/12/24 06:31:46;;;;;;;6.60;4.53;;;4.70;99.90;;;;;;5015750;28;20214;-52
2021/12/24 06:34:12;;;;;;;7.87;5.37;;;4.70;99.90;;;;;;4998212;28;20179;-50
2021/12/24 06:36:41;;;;;;;5.67;4.20;;;4.70;99.90;;;;;;4998557;28;20558;-54
2021/12/24 06:39:07;;;;;;;5.27;4.00;;;4.60;99.90;;;;;;4997564;28;20573;-50
2021/12/24 06:41:33;;;;;;;5.47;3.57;;;4.50;99.90;;;;;;4998748;28;20266;-51
2021/12/24 06:43:59;;;;;;;5.77;3.37;;;4.40;99.90;;;;;;4996697;28;20167;-53
2021/12/24 06:46:25;;;;;;;3.67;3.30;;;4.40;99.90;;;;;;4995733;28;20269;-52
2021/12/24 06:48:56;;;;;;;4.27;3.30;;;4.30;99.90;;;;;;4996013;28;20265;-50
2021/12/24 06:51:22;;;;;;;4.33;3.53;;;4.30;99.90;;;;;;4995440;28;20335;-52
2021/12/24 06:53:48;;;;;;;4.13;3.10;;;4.20;99.90;;;;;;4992901;28;20222;-53
2021/12/24 06:56:14;;;;;;;4.27;3.60;;;4.20;99.90;;;;;;4993116;28;20668;-52
2021/12/24 06:58:40;;;;;;;3.80;3.37;;;4.20;99.90;;;;;;4993608;28;20332;-54
2021/12/24 07:01:05;;;;;;;4.57;3.40;;;4.10;99.90;;;;;;4994715;28;20253;-52
2021/12/24 07:03:31;;;;;;;4.27;3.63;;;4.20;99.90;;;;;;4993364;28;20583;-52
2021/12/24 07:05:56;;;;;;;4.73;3.57;;;4.10;99.90;;;;;;4991034;28;20176;-55
2021/12/24 07:08:22;;;;;;;4.60;3.40;;;4.10;99.90;;;;;;4991282;28;20222;-49
2021/12/24 07:10:48;;;;;;;4.50;3.50;;;4.10;99.90;;;;;;4989260;28;20207;-54
2021/12/24 07:13:13;;;;;;;7.93;3.73;;;4.10;99.90;;;;;;4991523;28;20167;-53
2021/12/24 07:15:39;;;;;;;4.97;3.47;;;4.10;99.90;;;;;;4989594;28;20341;-51
2021/12/24 07:18:05;;;;;;;4.87;3.60;;;4.10;99.90;;;;;;4991537;28;20179;-55
2021/12/24 07:20:30;;;;;;;4.87;4.10;;;4.10;99.90;;;;;;4992325;28;20202;-53
2021/12/24 07:22:56;;;;;;;4.13;3.47;;;4.10;99.90;;;;;;4991779;28;20223;-54
2021/12/24 07:25:22;;;;;;;4.70;4.00;;;4.20;99.90;;;;;;4993051;28;20179;-52
2021/12/24 07:27:47;;;;;;;4.90;3.97;;;4.10;99.90;;;;;;4990474;28;20182;-51
2021/12/24 07:30:14;;;;;;;4.60;3.30;;;4.10;99.90;;;;;;4989408;28;20205;-54
2021/12/24 07:32:41;;;;;;;6.00;4.17;;;4.00;99.90;;;;;;4989587;28;20170;-52
2021/12/24 07:35:08;;;;;;;5.37;3.70;;;4.00;99.90;;;;;;4991853;28;20203;-50
2021/12/24 07:37:33;;;;;;;6.67;4.60;;;4.00;99.90;;;;;;4991151;28;20195;-53
2021/12/24 07:40:01;;;;;;;5.80;4.40;;;3.90;99.90;;;;;;4990946;28;20400;-48
2021/12/24 07:42:27;;;;;;;7.40;4.70;;;3.90;99.90;;;;;;4987847;28;20582;-49
2021/12/24 07:44:53;;;;;;;7.47;5.13;;;3.80;99.90;;;;;;4990262;28;20175;-51
2021/12/24 07:47:27;;;;;;;6.47;4.87;;;3.80;99.90;;;;;;4991385;28;20167;-50
2021/12/24 07:50:04;;;;;;;6.80;4.73;;;3.80;99.90;;;;;;4989860;28;20343;-55
2021/12/24 07:52:31;;;;;;;6.20;4.37;;;3.80;99.90;;;;;;4988891;28;20231;-50
2021/12/24 07:54:57;;;;;;;5.87;4.97;;;3.70;99.90;;;;;;4990020;28;20556;-54
2021/12/24 07:57:24;;;;;;;7.53;5.07;;;3.70;99.90;;;;;;4990731;28;20175;-51
2021/12/24 07:59:50;;;;;;;8.37;4.87;;;3.70;99.90;;;;;;4990836;28;20168;-49
2021/12/24 08:02:18;;;;;;;7.13;4.90;;;3.70;99.90;;;;;;4990173;28;20307;-51
2021/12/24 08:04:46;;;;;;;7.20;4.33;;;3.60;99.90;;;;;;4989151;28;20183;-49
2021/12/24 08:07:12;;;;;;;5.57;4.47;;;3.70;99.90;;;;;;4990295;28;20282;-53
2021/12/24 08:09:38;;;;;;;7.57;4.70;;;3.70;99.90;;;;;;4991319;28;20182;-53
2021/12/24 08:12:08;;;;;;;8.90;4.67;;;3.80;99.90;;;;;;4992537;28;20486;-52
2021/12/24 08:14:35;;;;;;;8.27;4.87;;;3.70;99.90;;;;;;4991630;28;20168;-54
2021/12/24 08:17:00;;;;;;;7.77;4.10;;;3.70;99.90;;;;;;4989517;28;20270;-52
2021/12/24 08:19:26;;;;;;;7.27;4.20;;;3.60;99.90;;;;;;4990194;28;20282;-52
2021/12/24 08:21:51;;;;;;;6.37;4.37;;;3.60;99.90;;;;;;4987815;28;20281;-51
2021/12/24 08:24:17;;;;;;;7.30;4.60;;;3.70;99.90;;;;;;4988612;28;20176;-55
2021/12/24 08:26:43;;;;;;;7.33;4.37;;;3.60;99.90;;;;;;4986870;28;20373;-52
2021/12/24 08:29:09;;;;;;;6.67;5.00;;;3.60;99.90;;;;;;4986248;28;20190;-52
2021/12/24 08:31:35;;;;;;;6.37;4.40;;;3.50;99.90;;;;;;4986099;28;20230;-51
2021/12/24 08:34:02;;;;;;;7.88;5.88;;;3.50;99.90;;;;;;4984674;28;20857;-51
2021/12/24 08:36:28;;;;;;;5.40;4.50;;;3.40;99.90;;;;;;4989420;28;20218;-49
2021/12/24 08:38:55;;;;;;;6.63;4.23;;;3.50;99.90;;;;;;4991756;28;20210;-51
2021/12/24 08:41:21;;;;;;;5.27;4.53;;;3.50;99.90;;;;;;4993323;28;20427;-52
2021/12/24 08:43:46;;;;;;;5.07;4.23;;;3.50;99.90;;;;;;4993156;28;20175;-53
2021/12/24 08:46:12;;;;;;;6.57;5.40;;;3.40;99.90;;;;;;4992799;28;20391;-49
2021/12/24 08:48:37;;;;;;;6.93;5.20;;;3.40;99.90;;;;;;4992005;28;20464;-50
2021/12/24 08:51:03;;;;;;;5.40;3.93;;;3.30;99.90;;;;;;4977521;28;20298;-54
2021/12/24 08:53:28;;;;;;;6.27;4.90;;;3.30;99.90;;;;;;5005966;28;20316;-52
2021/12/24 08:55:54;;;;;;;4.47;3.90;;;3.30;99.90;;;;;;4991748;28;20552;-54
2021/12/24 08:58:20;;;;;;;5.13;4.00;;;3.30;99.90;;;;;;5005776;28;20183;-50
2021/12/24 09:00:45;;;;;;;5.63;5.03;;;3.30;99.90;;;;;;5003006;28;20398;-51
2021/12/24 09:03:11;;;;;;;6.07;4.97;;;3.40;99.90;;;;;;4989020;28;20579;-50
2021/12/24 09:05:37;;;;;;;6.07;4.20;;;3.40;99.90;;;;;;5002559;28;20167;-54
2021/12/24 09:08:03;;;;;;;5.97;4.80;;;3.40;99.90;;;;;;5003131;28;20579;-51
2021/12/24 09:10:29;;;;;;;6.90;4.60;;;3.40;99.90;;;;;;4987454;28;20324;-55
2021/12/24 09:12:54;;;;;;;5.17;4.17;;;3.30;99.90;;;;;;4988103;28;20177;-52
2021/12/24 09:15:21;;;;;;;5.40;4.37;;;3.30;99.90;;;;;;5004792;28;20270;-54
2021/12/24 09:17:47;;;;;;;5.60;4.30;;;3.30;99.90;;;;;;5004759;28;20179;-53
2021/12/24 09:20:24;;;;;;;4.43;3.97;;;3.30;99.90;;;;;;4990579;28;20159;-51
2021/12/24 09:22:50;;;;;;;5.37;4.17;;;3.40;99.90;;;;;;5006215;28;20167;-53
2021/12/24 09:25:16;;;;;;;6.43;4.80;;;3.40;99.90;;;;;;4990473;28;20171;-50
2021/12/24 09:27:41;;;;;;;7.27;5.60;;;3.30;99.90;;;;;;5004991;28;20399;-51
2021/12/24 09:30:08;;;;;;;6.40;5.23;;;3.30;99.90;;;;;;4989332;28;20421;-52
2021/12/24 09:32:33;;;;;;;6.07;5.47;;;3.30;99.90;;;;;;5006294;28;20402;-53
2021/12/24 09:34:59;;;;;;;5.47;4.57;;;3.30;99.90;;;;;;4990336;28;20175;-54
2021/12/24 09:37:25;;;;;;;7.27;4.90;;;3.30;99.90;;;;;;5006273;28;20182;-54
2021/12/24 09:39:50;;;;;;;5.70;4.73;;;3.30;99.90;;;;;;5007148;28;20167;-53
2021/12/24 09:42:16;;;;;;;5.47;4.30;;;3.30;99.90;;;;;;4992210;28;20182;-51
2021/12/24 09:44:41;;;;;;;5.20;4.57;;;3.20;99.90;;;;;;5007018;28;20852;-55
2021/12/24 09:47:07;;;;;;;6.03;4.53;;;3.10;99.90;;;;;;5004311;28;20271;-51
2021/12/24 09:49:33;;;;;;;5.30;4.50;;;3.10;99.90;;;;;;4991959;28;20586;-51
2021/12/24 09:52:01;;;;;;;5.00;4.40;;;3.00;99.90;;;;;;4991130;28;20227;-51
2021/12/24 09:54:26;;;;;;;5.63;4.00;;;2.90;99.90;;;;;;4990378;28;20711;-53
2021/12/24 09:56:54;;;;;;;5.30;4.00;;;3.00;99.90;;;;;;4990597;28;20262;-50
2021/12/24 09:59:20;;;;;;;5.87;4.60;;;2.80;99.90;;;;;;4990067;28;20292;-53
2021/12/24 10:02:00;;;;;;;4.57;3.73;;;2.80;99.90;;;;;;4989915;28;20487;-52
2021/12/24 10:04:31;;;;;;;5.40;4.30;;;2.90;99.90;;;;;;4988484;28;20593;-52
2021/12/24 10:07:06;;;;;;;4.50;3.90;;;2.90;99.90;;;;;;4989941;28;20556;-55
2021/12/24 10:09:35;;;;;;;4.40;4.00;;;2.80;99.90;;;;;;4988959;28;20578;-49
2021/12/24 10:12:03;;;;;;;5.53;4.43;;;2.80;99.90;;;;;;4989308;28;20602;-52
2021/12/24 10:14:32;;;;;;;5.03;4.10;;;2.80;99.90;;;;;;4993776;28;20180;-52
2021/12/24 10:17:00;;;;;;;3.73;3.27;;;2.70;99.90;;;;;;4995770;28;20508;-50
2021/12/24 10:19:25;;;;;;;4.47;4.07;;;2.70;99.90;;;;;;4995407;28;20734;-49
2021/12/24 10:22:01;;;;;;;;;;;2.70;99.90;;;;;;4996558;28;20030;-50
2021/12/24 10:24:27;;;;;;;5.43;3.80;;;2.50;99.90;;;;;;4994331;28;20177;-49
2021/12/24 10:26:55;;;;;;;4.83;3.93;;;2.50;99.90;;;;;;4992556;28;20179;-52
2021/12/24 10:29:29;;;;;;;4.80;4.23;;;2.60;99.90;;;;;;4991200;28;20175;-54
2021/12/24 10:31:57;;;;;;;4.73;4.07;;;2.60;99.90;;;;;;4988017;28;20214;-51
2021/12/24 10:34:32;;;;;;;5.83;4.70;;;2.60;99.90;;;;;;4986721;28;20590;-55
2021/12/24 10:37:03;;;;;;;5.23;4.40;;;2.60;99.90;;;;;;4986984;28;20290;-52
2021/12/24 10:39:50;;;;;;;5.37;4.60;;;2.60;99.90;;;;;;4990375;28;20168;-52
2021/12/24 10:42:21;;;;;;;5.67;4.97;;;2.60;99.90;;;;;;4991028;28;20290;-53
2021/12/24 10:44:49;;;;;;;6.57;5.33;;;2.60;99.90;;;;;;4991291;28;20171;-52
2021/12/24 10:47:25;;;;;;;6.93;5.03;;;2.60;99.90;;;;;;4990583;28;20175;-52
2021/12/24 10:50:25;;;;;;;7.17;5.93;;;2.50;99.90;;;;;;4989937;28;20243;-56
2021/12/24 10:55:27;;;;;;;7.45;6.68;;;2.60;99.90;;;;;;4990441;28;20563;-53
2021/12/24 10:57:56;;;;;;;7.40;5.87;;;2.60;99.90;;;;;;4990797;28;20278;-53
2021/12/24 11:00:33;;;;;;;7.17;6.10;;;2.60;99.90;;;;;;4990145;28;20179;-54
2021/12/24 11:03:05;;;;;;;6.73;5.17;;;2.50;99.90;;;;;;4988458;28;20171;-53
2021/12/24 11:05:38;;;;;;;6.47;5.20;;;2.60;99.90;;;;;;4990989;28;20187;-52
2021/12/24 11:08:06;;;;;;;5.83;5.10;;;2.60;99.90;;;;;;4989764;28;20181;-55
2021/12/24 11:10:41;;;;;;;6.00;5.10;;;2.60;99.90;;;;;;4987388;28;20179;-56
2021/12/24 11:13:16;;;;;;;6.90;5.83;;;2.70;99.90;;;;;;4990181;28;20179;-53
2021/12/24 11:15:50;;;;;;;6.37;5.57;;;2.70;99.90;;;;;;4990563;28;20171;-55
2021/12/24 11:18:20;;;;;;;7.17;5.83;;;2.70;99.90;;;;;;4991329;28;20245;-54
2021/12/24 11:20:52;;;;;;;7.30;5.97;;;2.60;99.90;;;;;;4992586;28;20183;-51
2021/12/24 11:23:20;;;;;;;6.20;5.23;;;2.60;99.90;;;;;;4993486;28;20210;-51
2021/12/24 11:25:57;;;;;;;6.93;6.10;;;2.70;99.90;;;;;;4993601;28;20441;-53
2021/12/24 11:28:24;;;;;;;9.83;6.33;;;2.80;99.90;;;;;;4992713;28;20183;-53
2021/12/24 11:30:56;;;;;;;8.07;6.67;;;2.70;99.90;;;;;;4991723;28;20211;-49
2021/12/24 11:33:23;;;;;;;;;;;2.70;99.90;;;;;;4992911;28;20026;-54
2021/12/24 11:35:49;;;;;;;;;;;2.70;99.90;;;;;;4993205;28;19914;-53
2021/12/24 11:38:16;;;;;;;;;;;2.70;99.90;;;;;;4992769;28;19913;-54
2021/12/24 11:40:44;;;;;;;;;;;2.70;99.90;;;;;;4990188;28;19944;-51
2021/12/24 11:43:09;;;;;;;;;;;2.70;99.90;;;;;;4991089;28;19909;-51
2021/12/24 11:45:35;;;;;;;;;;;2.60;99.90;;;;;;4990908;28;19914;-53
2021/12/24 11:48:02;;;;;;;;;;;2.60;99.90;;;;;;4990978;28;20007;-52
2021/12/24 11:50:28;;;;;;;;;;;2.70;99.90;;;;;;4990181;28;19920;-51
2021/12/24 11:52:55;;;;;;;;;;;2.80;99.90;;;;;;4991499;28;20229;-54
2021/12/24 11:55:22;;;;;;;;;;;2.90;99.90;;;;;;4993118;28;19932;-55
2021/12/24 11:57:54;;;;;;;;;;;2.90;99.90;;;;;;4993570;28;19917;-53
2021/12/24 12:00:21;;;;;;;;;;;2.90;99.90;;;;;;4990900;28;19992;-52
2021/12/24 12:02:47;;;;;;;;;;;2.80;99.90;;;;;;4991287;28;19913;-50
2021/12/24 12:05:17;;;;;;;;;;;2.80;99.90;;;;;;4991012;28;19921;-55
2021/12/24 12:07:44;;;;;;;;;;;2.80;99.90;;;;;;4990040;28;20206;-53
2021/12/24 12:10:10;;;;;;;;;;;2.80;99.90;;;;;;4990122;28;20217;-55
2021/12/24 12:12:38;;;;;;;;;;;2.80;99.90;;;;;;4989956;28;19909;-55
2021/12/24 12:15:23;;;;;;;;;;;2.70;99.90;;;;;;4991427;28;20298;-52
2021/12/24 12:17:50;;;;;;;;;;;2.70;99.90;;;;;;4993777;28;20029;-54
2021/12/24 12:20:35;;;;;;;;;;;2.70;99.90;;;;;;4995123;28;19963;-52
2021/12/24 12:23:01;;;;;;;;;;;2.70;99.90;;;;;;4995708;28;19912;-52
2021/12/24 12:25:32;;;;;;;;;;;2.70;99.90;;;;;;4996258;28;20397;-55
2021/12/24 12:27:59;;;;;;;;;;;2.80;99.90;;;;;;4996691;28;19917;-53
2021/12/24 12:30:34;;;;;;;;;;;2.80;99.90;;;;;;4995200;28;19906;-55
2021/12/24 12:33:19;;;;;;;;;;;2.80;99.90;;;;;;4995717;28;19906;-52
2021/12/24 12:35:46;;;;;;;;;;;2.80;99.90;;;;;;4994315;28;19914;-53
2021/12/24 12:38:22;;;;;;;;;;;2.70;99.90;;;;;;4994169;28;19992;-54
2021/12/24 12:40:48;;;;;;;;;;;2.70;99.90;;;;;;4993052;28;19913;-53
2021/12/24 12:43:14;;;;;;;;;;;2.70;99.90;;;;;;4994200;28;20005;-56
2021/12/24 12:45:41;;;;;;;;;;;2.80;99.90;;;;;;4994288;28;19956;-49
2021/12/24 12:48:08;;;;;;;;;;;2.80;99.90;;;;;;4993437;28;19917;-55
2021/12/24 12:50:34;;;;;;;;;;;2.80;99.90;;;;;;4994058;28;19913;-53
2021/12/24 12:53:19;;;;;;;;;;;2.80;99.90;;;;;;4995418;28;20226;-51
2021/12/24 12:55:44;;;;;;;;;;;2.80;99.90;;;;;;4993105;28;20504;-52
2021/12/24 12:58:28;;;;;;;;;;;2.80;99.90;;;;;;4993725;28;20030;-54
2021/12/24 13:01:04;;;;;;;;;;;2.80;99.90;;;;;;4991995;28;20061;-56
2021/12/24 13:03:29;;;;;;;;;;;2.80;99.90;;;;;;4992008;28;19910;-55
2021/12/24 13:05:57;;;;;;;;;;;2.80;99.90;;;;;;4990258;28;19916;-53
2021/12/24 13:08:23;;;;;;;;;;;2.80;99.90;;;;;;4989300;28;19910;-55
2021/12/24 13:11:02;;;;;;;;;;;2.90;99.90;;;;;;4988937;28;20000;-55
2021/12/24 13:13:27;;;;;;;;;;;2.80;99.90;;;;;;4982537;28;20410;-53
2021/12/24 13:15:54;;;;;;;;;;;2.90;99.90;;;;;;4983470;28;19905;-53
2021/12/24 13:18:29;;;;;;;;;;;2.90;99.90;;;;;;4981693;28;20261;-53
2021/12/24 13:23:42;;;;;;;;;;;2.80;99.90;;;;;;4956490;28;20045;-53
2021/12/24 13:26:09;;;;;;;;;;;2.80;99.90;;;;;;4985807;28;20242;-53
2021/12/24 13:28:52;;;;;;;;;;;2.90;99.90;;;;;;5000710;28;19906;-56
2021/12/24 13:31:17;;;;;;;;;;;2.90;99.90;;;;;;5006313;28;19909;-50
2021/12/24 13:33:45;;;;;;;;;;;2.90;99.90;;;;;;5006852;28;19909;-50
2021/12/24 13:36:11;;;;;;;;;;;2.90;99.90;;;;;;4995730;28;20144;-56
2021/12/24 13:38:37;;;;;;;;;;;2.90;99.90;;;;;;5005942;28;19905;-55
2021/12/24 13:41:03;;;;;;;;;;;3.00;99.90;;;;;;5007847;28;19917;-55
2021/12/24 13:43:31;;;;;;;;;;;2.90;99.90;;;;;;5005603;28;19932;-56
2021/12/24 13:46:04;;;;;;;;;;;2.90;99.90;;;;;;5005602;28;20271;-54
2021/12/24 13:48:43;;;;;;;;;;;3.00;99.90;;;;;;5006627;28;20032;-52
2021/12/24 13:56:37;;;;;;;;;;;3.00;99.90;;;;;;5003711;28;20008;-54
2021/12/24 13:59:02;;;;;;;;;;;3.00;99.90;;;;;;4987557;28;20004;-54
2021/12/24 14:01:29;;;;;;;;;;;3.00;99.90;;;;;;4987990;28;20095;-53
2021/12/24 14:03:55;;;;;;;;;;;3.00;99.90;;;;;;4986193;28;20033;-54
2021/12/24 14:06:30;;;;;;;;;;;3.00;99.90;;;;;;4983393;28;20340;-50
2021/12/24 14:09:06;;;;;;;;;;;3.00;99.90;;;;;;4983242;28;20189;-54
2021/12/24 14:11:35;;;;;;;;;;;3.00;99.90;;;;;;5002276;28;19947;-56
2021/12/24 14:14:05;;;;;;;;;;;3.00;99.90;;;;;;4986672;28;19905;-52
2021/12/24 14:16:52;;;;;;;;;;;3.00;99.90;;;;;;5004997;28;19916;-52
2021/12/24 14:19:29;;;;;;;;;;;3.00;99.90;;;;;;5005671;28;19985;-56
2021/12/24 14:22:04;;;;;;;;;;;3.00;99.90;;;;;;4987716;28;19971;-51
2021/12/24 14:24:36;;;;;;;;;;;3.00;99.90;;;;;;4988706;28;20258;-50
2021/12/24 14:27:03;;;;;;;;;;;3.00;99.90;;;;;;4989061;28;19941;-54
2021/12/24 14:29:29;;;;;;;;;;;3.00;99.90;;;;;;4990019;28;19905;-52
2021/12/24 14:31:59;;;;;;;;;;;3.00;99.90;;;;;;5007441;28;19909;-55
2021/12/24 14:34:35;;;;;;;;;;;3.00;99.90;;;;;;5005584;28;19909;-52
2021/12/24 14:37:05;;;;;;;;;;;3.00;99.90;;;;;;4991217;28;20146;-52
2021/12/24 14:39:35;;;;;;;;;;;3.00;99.90;;;;;;4989875;28;20087;-52
2021/12/24 14:42:11;;;;;;;;;;;2.90;99.90;;;;;;5006954;28;19906;-53
2021/12/24 14:44:36;;;;;;;;;;;2.90;99.90;;;;;;4990037;28;19912;-51
2021/12/24 14:47:02;;;;;;;;;;;2.90;99.90;;;;;;5007429;28;19909;-55
2021/12/24 14:49:31;;;;;;;;;;;3.00;99.90;;;;;;4990444;28;19952;-54
2021/12/24 14:52:12;;;;;;;;;;;2.90;99.90;;;;;;4989829;28;20100;-50
2021/12/24 14:54:57;;;;;;;;;;;2.90;99.90;;;;;;5004264;28;20120;-51
2021/12/24 14:57:24;;;;;;;;;;;2.90;99.90;;;;;;5006009;28;19981;-51
2021/12/24 14:59:50;;;;;;;;;;;2.90;99.90;;;;;;5006425;28;20209;-52
2021/12/24 15:02:15;;;;;;;;;;;2.90;99.90;;;;;;5003067;28;20313;-51